Time;durP1;ratioP1;P1;durP2;ratioP2;P2;SDS_P1;SDS_P2;PMS_P1;PMS_P2;Temp;Humidity;BMP_temperature;BMP_pressure;BME280_temperature;BME280_humidity;BME280_pressure;Samples;Min_cycle;Max_cycle;Signal;HPM_P1;HPM_P2
2021/12/22 00:00:26;;;;;;;22.27;9.68;;;;;;;-0.49;75.15;102312.75;5070094;28;20041;-69
2021/12/22 00:02:52;;;;;;;27.70;10.05;;;;;;;-0.43;75.06;102311.72;5071549;28;20088;-68
2021/12/22 00:05:24;;;;;;;20.17;10.05;;;;;;;-0.43;75.36;102307.34;5085709;28;20524;-68
2021/12/22 00:07:52;;;;;;;26.58;10.77;;;;;;;-0.52;75.04;102310.22;5085422;28;20530;-67
2021/12/22 00:10:20;;;;;;;24.25;9.70;;;;;;;-0.53;75.70;102307.66;5087640;28;20048;-66
2021/12/22 00:12:49;;;;;;;24.17;10.60;;;;;;;-0.64;75.63;102310.56;5072802;28;20045;-68
2021/12/22 00:15:16;;;;;;;28.02;10.18;;;;;;;-0.64;76.49;102306.22;5087959;28;20093;-68
2021/12/22 00:17:43;;;;;;;22.25;9.52;;;;;;;-0.71;76.09;102317.72;5068394;28;20040;-68
2021/12/22 00:20:12;;;;;;;21.17;9.43;;;;;;;-0.65;76.01;102314.09;5071701;28;20036;-68
2021/12/22 00:22:39;;;;;;;25.13;9.98;;;;;;;-0.54;75.95;102314.63;5070790;28;20051;-68
2021/12/22 00:25:06;;;;;;;24.08;9.43;;;;;;;-0.57;75.51;102319.91;5075244;28;20048;-69
2021/12/22 00:27:33;;;;;;;20.88;9.82;;;;;;;-0.52;75.52;102317.19;5086546;28;20043;-66
2021/12/22 00:30:00;;;;;;;20.75;9.68;;;;;;;-0.59;75.63;102311.28;5090413;28;20036;-66
2021/12/22 00:32:29;;;;;;;20.75;10.43;;;;;;;-0.63;75.71;102296.66;5093302;28;20385;-67
2021/12/22 00:34:56;;;;;;;21.00;9.18;;;;;;;-0.61;75.56;102306.13;5074945;28;20051;-67
2021/12/22 00:37:30;;;;;;;22.02;10.13;;;;;;;-0.70;75.94;102300.31;5093609;28;20265;-67
2021/12/22 00:39:57;;;;;;;21.08;9.20;;;;;;;-0.63;76.04;102299.25;5076557;28;20047;-67
2021/12/22 00:42:26;;;;;;;20.10;9.10;;;;;;;-0.69;76.22;102302.00;5093170;28;20414;-66
2021/12/22 00:44:54;;;;;;;21.05;9.68;;;;;;;-0.77;76.00;102300.47;5095072;28;20039;-66
2021/12/22 00:47:24;;;;;;;28.92;9.85;;;;;;;-0.68;75.73;102298.53;5093953;28;20070;-67
2021/12/22 00:49:51;;;;;;;21.65;9.05;;;;;;;-0.74;75.62;102293.50;5094278;28;20048;-67
2021/12/22 00:52:18;;;;;;;22.35;9.05;;;;;;;-0.82;75.96;102296.28;5093772;28;20097;-66
2021/12/22 00:54:45;;;;;;;22.38;9.00;;;;;;;-0.75;76.09;102294.38;5093235;28;20036;-67
2021/12/22 00:57:15;;;;;;;24.60;9.85;;;;;;;-0.79;75.94;102289.25;5075614;28;20055;-67
2021/12/22 00:59:43;;;;;;;22.67;9.43;;;;;;;-0.80;76.25;102286.69;5081485;28;20505;-67
2021/12/22 01:02:11;;;;;;;21.15;8.98;;;;;;;-0.81;75.44;102282.38;5063199;28;20625;-66
2021/12/22 01:04:39;;;;;;;19.38;8.82;;;;;;;-0.85;76.12;102283.38;5055008;28;20497;-66
2021/12/22 01:07:06;;;;;;;20.48;8.48;;;;;;;-0.83;75.84;102292.84;5073644;28;20048;-67
2021/12/22 01:09:33;;;;;;;20.83;8.88;;;;;;;-0.83;75.94;102287.63;5074497;28;20040;-67
2021/12/22 01:12:01;;;;;;;20.05;8.43;;;;;;;-0.86;75.92;102289.47;5073019;28;20051;-67
2021/12/22 01:14:28;;;;;;;19.05;8.15;;;;;;;-0.78;75.88;102290.97;5074755;28;20047;-67
2021/12/22 01:17:00;;;;;;;21.65;9.07;;;;;;;-0.80;75.46;102297.97;5074782;28;20041;-67
2021/12/22 01:19:41;;;;;;;22.70;8.52;;;;;;;-0.81;75.79;102293.66;5073927;28;20045;-67
2021/12/22 01:22:23;;;;;;;22.87;8.47;;;;;;;-0.83;75.28;102298.06;5072753;28;20048;-66
2021/12/22 01:24:59;;;;;;;17.60;8.18;;;;;;;-0.83;75.29;102298.06;5073038;28;20087;-66
2021/12/22 01:27:32;;;;;;;21.33;8.35;;;;;;;-0.83;75.86;102308.47;5081005;28;20087;-67
2021/12/22 01:30:01;;;;;;;19.85;8.88;;;;;;;-0.85;75.66;102305.06;5093576;28;20071;-67
2021/12/22 01:32:28;;;;;;;23.23;8.55;;;;;;;-0.92;76.52;102307.88;5076366;28;20044;-66
2021/12/22 01:34:54;;;;;;;22.85;8.70;;;;;;;-1.00;76.21;102311.53;5086943;28;20040;-67
2021/12/22 01:37:22;;;;;;;24.95;9.30;;;;;;;-1.01;76.13;102314.19;5089386;28;20052;-66
2021/12/22 01:39:48;;;;;;;22.75;8.32;;;;;;;-0.94;76.15;102317.50;5093417;28;20119;-66
2021/12/22 01:42:15;;;;;;;22.25;8.98;;;;;;;-0.90;75.89;102314.75;5085638;28;20040;-66
2021/12/22 01:50:39;;;;;;;19.35;8.45;;;;;;;-1.03;76.15;102314.22;5085725;28;20079;-68
2021/12/22 01:53:27;;;;;;;22.85;8.48;;;;;;;-0.95;76.28;102310.56;5081832;28;20481;-68
2021/12/22 01:56:12;;;;;;;17.73;8.05;;;;;;;-0.84;75.95;102317.19;5067615;28;20116;-68
2021/12/22 01:58:43;;;;;;;19.55;8.57;;;;;;;-0.86;75.74;102324.19;5068973;28;20044;-69
2021/12/22 02:01:11;;;;;;;;;;;;;;;-0.87;76.41;102324.25;5068972;28;20352;-66
2021/12/22 02:03:39;;;;;;;18.33;8.23;;;;;;;-0.83;76.08;102324.09;5067675;28;19924;-68
2021/12/22 02:06:08;;;;;;;23.38;8.85;;;;;;;-0.80;75.89;102326.63;5064166;28;20115;-68
2021/12/22 02:08:36;;;;;;;23.55;8.77;;;;;;;-0.86;76.17;102315.53;5067364;28;20523;-68
2021/12/22 02:11:04;;;;;;;18.52;8.43;;;;;;;-0.93;76.71;102301.78;5066590;28;20048;-68
2021/12/22 02:13:36;;;;;;;19.30;7.82;;;;;;;-1.04;77.03;102322.06;5049404;28;20052;-68
2021/12/22 02:16:07;;;;;;;22.80;8.68;;;;;;;-1.02;77.49;102322.88;5067299;28;20112;-68
2021/12/22 02:18:35;;;;;;;19.33;8.05;;;;;;;-0.99;76.84;102310.63;5068679;28;20080;-68
2021/12/22 02:21:04;;;;;;;18.27;7.47;;;;;;;-0.98;nan;102307.16;5066444;28;20090;-68
2021/12/22 02:23:31;;;;;;;19.98;7.85;;;;;;;-1.12;76.73;102311.03;5067187;28;20044;-66
2021/12/22 02:26:07;;;;;;;18.13;6.97;;;;;;;-1.11;76.96;102316.19;5068150;28;20103;-66
2021/12/22 02:28:36;;;;;;;20.02;8.00;;;;;;;-1.06;77.29;102314.28;5067355;28;20059;-68
2021/12/22 02:31:03;;;;;;;17.92;8.00;;;;;;;-1.07;76.84;102312.59;5050364;28;20044;-66
2021/12/22 02:33:35;;;;;;;19.35;7.30;;;;;;;-1.05;76.46;102313.41;5036114;28;20036;-68
2021/12/22 02:38:43;;;;;;;18.02;7.45;;;;;;;-1.05;76.70;102305.59;5089721;27;20386;-66
2021/12/22 02:41:13;;;;;;;17.33;7.28;;;;;;;-1.06;76.27;102303.03;5077170;28;20571;-66
2021/12/22 02:43:48;;;;;;;16.77;6.95;;;;;;;-1.03;76.61;102292.53;5069170;28;20102;-68
2021/12/22 02:46:19;;;;;;;16.73;7.07;;;;;;;-1.04;76.32;102294.25;5067639;28;20041;-68
2021/12/22 02:48:47;;;;;;;20.02;7.40;;;;;;;-1.12;76.44;102290.19;5067911;28;20494;-68
2021/12/22 02:51:15;;;;;;;21.88;7.15;;;;;;;-1.13;76.47;102293.66;5068758;28;20045;-66
2021/12/22 02:53:50;;;;;;;20.85;7.25;;;;;;;-1.17;76.37;102296.34;5066249;28;20047;-69
2021/12/22 03:04:13;;;;;;;16.55;6.22;;;;;;;-1.33;76.44;102292.44;5076642;27;20902;-67
2021/12/22 03:06:50;;;;;;;15.82;6.93;;;;;;;-1.25;76.01;102290.50;5068619;28;20037;-67
2021/12/22 03:09:27;;;;;;;20.08;7.18;;;;;;;-1.23;76.74;102296.50;5068298;28;20119;-67
2021/12/22 03:11:57;;;;;;;19.52;6.60;;;;;;;-1.17;75.86;102291.13;5068193;28;20060;-66
2021/12/22 03:14:25;;;;;;;16.05;6.50;;;;;;;-1.25;76.17;102292.25;5068446;28;20044;-66
2021/12/22 03:16:52;;;;;;;15.15;6.30;;;;;;;-1.28;75.88;102290.56;5065906;28;20048;-66
2021/12/22 03:19:23;;;;;;;15.98;6.50;;;;;;;-1.24;76.20;102292.19;5066625;28;20421;-66
2021/12/22 03:21:53;;;;;;;16.92;6.25;;;;;;;-1.35;76.31;102278.59;5066492;28;20060;-66
2021/12/22 03:24:21;;;;;;;19.75;6.10;;;;;;;-1.25;76.15;102287.03;5034532;28;20040;-67
2021/12/22 03:26:48;;;;;;;15.15;6.95;;;;;;;-1.28;75.93;102281.91;5084096;28;20049;-67
2021/12/22 03:29:17;;;;;;;12.35;6.25;;;;;;;-1.28;76.29;102287.13;5068198;28;20052;-67
2021/12/22 03:31:45;;;;;;;17.88;5.97;;;;;;;-1.16;75.67;102282.44;5067559;28;20040;-67
2021/12/22 03:34:14;;;;;;;16.55;6.10;;;;;;;-1.22;75.99;102272.19;5067632;28;20478;-67
2021/12/22 03:36:42;;;;;;;13.40;5.80;;;;;;;-1.21;75.66;102275.66;5067007;28;20048;-67
2021/12/22 03:39:10;;;;;;;14.63;6.35;;;;;;;-1.26;75.94;102273.16;5066928;28;20051;-67
2021/12/22 03:41:38;;;;;;;16.08;6.40;;;;;;;-1.24;76.07;102281.78;5065702;28;20068;-67
2021/12/22 03:44:06;;;;;;;16.08;6.82;;;;;;;-1.26;76.08;102282.72;5068180;28;20044;-67
2021/12/22 03:46:35;;;;;;;16.95;6.40;;;;;;;-1.24;75.66;102279.16;5067634;28;20052;-67
2021/12/22 03:49:05;;;;;;;17.35;6.55;;;;;;;-1.42;76.07;102267.50;5067908;28;20044;-67
2021/12/22 03:51:32;;;;;;;17.23;6.30;;;;;;;-1.31;76.09;102284.59;5033743;28;20132;-67
2021/12/22 03:53:59;;;;;;;15.20;6.05;;;;;;;-1.27;76.17;102281.03;5051047;28;20098;-67
2021/12/22 03:56:26;;;;;;;12.77;5.22;;;;;;;-1.20;75.67;102275.63;5077483;28;20118;-67
2021/12/22 03:58:53;;;;;;;17.98;5.90;;;;;;;-1.22;75.87;102273.94;5068551;28;20037;-67
2021/12/22 04:01:20;;;;;;;14.15;6.10;;;;;;;-1.22;76.11;102276.53;5068341;28;20071;-67
2021/12/22 04:03:50;;;;;;;12.00;5.55;;;;;;;-1.22;75.59;102280.00;5066494;28;20055;-68
2021/12/22 04:06:17;;;;;;;14.52;5.80;;;;;;;-1.30;76.10;102276.75;5047523;28;20577;-67
2021/12/22 04:08:44;;;;;;;15.73;6.00;;;;;;;-1.21;75.69;102286.91;5062094;28;20047;-67
2021/12/22 04:11:10;;;;;;;18.20;6.18;;;;;;;-1.18;75.66;102278.19;5061681;28;20049;-67
2021/12/22 04:13:37;;;;;;;18.08;6.38;;;;;;;-1.19;75.75;102285.13;5062835;28;20087;-67
2021/12/22 04:16:04;;;;;;;22.75;6.25;;;;;;;-1.20;75.70;102290.34;5052534;28;20460;-67
2021/12/22 04:18:31;;;;;;;16.55;5.78;;;;;;;-1.19;75.43;102297.28;5036428;28;20052;-67
2021/12/22 04:20:58;;;;;;;15.27;6.57;;;;;;;-1.13;75.72;102291.06;5052647;28;20041;-67
2021/12/22 04:23:25;;;;;;;16.13;6.30;;;;;;;-1.18;75.66;102299.88;5048790;28;20379;-67
2021/12/22 04:25:52;;;;;;;13.95;5.82;;;;;;;-1.10;75.73;102301.41;5034026;28;20045;-67
2021/12/22 04:28:18;;;;;;;15.80;5.63;;;;;;;-1.18;75.42;102299.00;5053291;28;20033;-67
2021/12/22 04:30:49;;;;;;;15.65;6.22;;;;;;;-1.12;75.54;102298.00;5053576;28;20048;-67
2021/12/22 04:33:19;;;;;;;15.35;6.20;;;;;;;-1.22;76.27;102299.97;5050535;28;20060;-67
2021/12/22 04:35:48;;;;;;;15.10;5.78;;;;;;;-1.22;76.17;102300.84;5052517;28;20060;-66
2021/12/22 04:38:15;;;;;;;19.27;5.97;;;;;;;-1.16;75.43;102300.66;5052609;28;20049;-66
2021/12/22 04:40:42;;;;;;;17.25;6.22;;;;;;;-1.14;75.64;102316.25;5053394;28;20052;-66
2021/12/22 04:43:10;;;;;;;16.17;5.65;;;;;;;-1.14;75.40;102303.25;5085434;28;20136;-67
2021/12/22 04:45:36;;;;;;;17.23;6.13;;;;;;;-1.11;75.69;102308.38;5053399;28;20311;-67
2021/12/22 04:48:05;;;;;;;12.93;5.97;;;;;;;-1.13;75.13;102311.91;5053466;28;20060;-66
2021/12/22 04:50:33;;;;;;;17.17;5.97;;;;;;;-1.14;75.42;102302.41;5052550;28;20053;-66
2021/12/22 04:53:10;;;;;;;16.17;5.85;;;;;;;-1.32;76.11;102301.13;5051540;28;20592;-66
2021/12/22 04:55:37;;;;;;;16.25;6.28;;;;;;;-1.19;75.93;102303.34;5068852;28;20088;-66
2021/12/22 04:58:05;;;;;;;16.95;6.15;;;;;;;-1.18;75.61;102312.88;5053469;28;20587;-66
2021/12/22 05:00:34;;;;;;;14.40;6.07;;;;;;;-1.23;75.67;102301.72;5052849;28;20041;-67
2021/12/22 05:03:02;;;;;;;20.70;6.18;;;;;;;-1.25;75.69;102294.84;5056630;28;20056;-67
2021/12/22 05:05:30;;;;;;;14.63;6.07;;;;;;;-1.23;76.07;102296.50;5033042;28;20048;-67
2021/12/22 05:07:57;;;;;;;18.05;5.55;;;;;;;-1.18;76.16;102286.84;5052777;28;20041;-67
2021/12/22 05:10:25;;;;;;;14.68;5.90;;;;;;;-1.20;75.87;102285.16;5035570;28;20048;-67
2021/12/22 05:12:52;;;;;;;18.48;5.97;;;;;;;-1.22;75.66;102285.22;5052929;28;20037;-67
2021/12/22 05:15:22;;;;;;;15.65;6.00;;;;;;;-1.22;75.90;102285.22;5052033;28;20510;-67
2021/12/22 05:20:31;;;;;;;18.20;6.75;;;;;;;-1.28;76.21;102272.34;5130199;27;20933;-68
2021/12/22 05:22:58;;;;;;;24.17;5.85;;;;;;;-1.22;75.42;102281.75;5108171;28;20525;-68
2021/12/22 05:25:24;;;;;;;17.02;5.90;;;;;;;-1.20;75.20;102277.34;5108504;28;20044;-68
2021/12/22 05:27:51;;;;;;;14.10;5.75;;;;;;;-1.22;75.79;102279.13;5108784;28;20048;-68
2021/12/22 05:30:18;;;;;;;17.42;5.45;;;;;;;-1.14;75.54;102284.16;5106752;28;20036;-68
2021/12/22 05:32:46;;;;;;;13.57;5.82;;;;;;;-1.16;75.39;102276.38;5111730;27;20039;-68
2021/12/22 05:35:13;;;;;;;14.07;5.65;;;;;;;-1.25;75.68;102279.22;5129962;27;20047;-67
2021/12/22 05:37:39;;;;;;;18.85;5.72;;;;;;;-1.25;75.86;102280.09;5130994;27;20039;-67
2021/12/22 05:40:08;;;;;;;12.18;5.68;;;;;;;-1.22;75.65;102281.75;5110244;27;20039;-67
2021/12/22 05:42:35;;;;;;;18.50;6.00;;;;;;;-1.22;75.94;102281.75;5107760;28;20036;-67
2021/12/22 05:45:02;;;;;;;16.23;5.97;;;;;;;-1.29;75.71;102283.66;5106522;28;20051;-67
2021/12/22 05:47:29;;;;;;;16.45;6.07;;;;;;;-1.24;75.35;102284.38;5107879;28;20047;-67
2021/12/22 05:49:57;;;;;;;15.18;6.03;;;;;;;-1.12;75.37;102277.16;5094557;27;20039;-67
2021/12/22 05:52:23;;;;;;;14.30;5.55;;;;;;;-1.23;75.14;102280.88;5090950;28;20097;-67
2021/12/22 05:54:50;;;;;;;20.42;6.13;;;;;;;-1.21;75.11;102276.50;5108975;28;20390;-67
2021/12/22 05:57:17;;;;;;;16.20;6.32;;;;;;;-1.16;75.29;102271.19;5108667;28;20044;-68
2021/12/22 05:59:44;;;;;;;17.20;6.15;;;;;;;-1.30;75.28;102266.31;5109169;28;20040;-67
2021/12/22 06:02:10;;;;;;;14.95;5.63;;;;;;;-1.31;76.06;102271.56;5106930;28;20051;-67
2021/12/22 06:04:37;;;;;;;17.80;6.07;;;;;;;-1.24;75.54;102268.75;5106247;28;20047;-67
2021/12/22 06:07:04;;;;;;;17.42;6.07;;;;;;;-1.27;75.28;102255.84;5116509;27;20028;-67
2021/12/22 06:09:31;;;;;;;14.63;5.97;;;;;;;-1.16;75.36;102263.38;5113068;28;20040;-67
2021/12/22 06:11:58;;;;;;;14.40;5.97;;;;;;;-1.26;75.53;102261.88;5112125;28;20040;-68
2021/12/22 06:14:25;;;;;;;13.43;5.70;;;;;;;-1.25;75.41;102261.00;5090298;28;20044;-67
2021/12/22 06:16:52;;;;;;;17.67;6.25;;;;;;;-1.16;75.05;102266.81;5107474;28;20048;-66
2021/12/22 06:19:20;;;;;;;15.63;5.90;;;;;;;-1.28;75.36;102255.88;5108070;28;20515;-67
2021/12/22 06:21:47;;;;;;;15.77;6.25;;;;;;;-1.16;75.22;102260.75;5125986;28;20047;-66
2021/12/22 06:24:14;;;;;;;14.82;5.65;;;;;;;-1.19;75.17;102253.88;5110191;28;20047;-67
2021/12/22 06:26:40;;;;;;;17.27;6.22;;;;;;;-0.98;74.69;102255.03;5112383;28;20039;-66
2021/12/22 06:29:07;;;;;;;16.35;5.95;;;;;;;-1.05;74.86;102260.47;5127868;27;20416;-66
2021/12/22 06:31:34;;;;;;;16.73;6.00;;;;;;;-1.16;75.31;102250.34;5115532;27;20048;-66
2021/12/22 06:34:00;;;;;;;15.00;5.78;;;;;;;-1.10;75.24;102264.94;5113420;28;20041;-66
2021/12/22 06:36:27;;;;;;;13.13;5.60;;;;;;;-1.12;75.21;102270.19;5105900;27;20508;-68
2021/12/22 06:38:55;;;;;;;19.27;6.22;;;;;;;-1.03;74.77;102258.66;5085456;28;20044;-68
2021/12/22 06:41:21;;;;;;;16.92;6.18;;;;;;;-1.11;75.04;102261.50;5095932;27;20123;-68
2021/12/22 06:43:48;;;;;;;17.67;5.93;;;;;;;-1.06;75.21;102256.16;5076119;28;20056;-68
2021/12/22 06:46:15;;;;;;;19.45;6.50;;;;;;;-0.99;74.77;102248.09;5092609;28;20063;-68
2021/12/22 06:48:42;;;;;;;15.63;6.18;;;;;;;-1.10;74.88;102255.38;5094394;28;20387;-68
2021/12/22 06:51:09;;;;;;;16.15;6.10;;;;;;;-1.03;75.12;102263.88;5092932;28;20048;-68
2021/12/22 06:53:36;;;;;;;17.02;6.60;;;;;;;-1.02;74.77;102266.44;5109118;27;20043;-67
2021/12/22 06:56:04;;;;;;;16.33;6.45;;;;;;;-1.07;75.16;102268.31;5091786;28;20044;-67
2021/12/22 06:58:31;;;;;;;16.00;6.65;;;;;;;-1.01;75.01;102254.28;5092235;28;20122;-67
2021/12/22 07:00:59;;;;;;;16.08;6.75;;;;;;;-0.95;74.92;102256.69;5090757;28;20128;-68
2021/12/22 07:03:27;;;;;;;18.05;6.40;;;;;;;-1.03;74.64;102256.91;5075919;28;20442;-68
2021/12/22 07:05:54;;;;;;;19.27;6.85;;;;;;;-0.97;74.69;102254.13;5092771;28;20056;-67
2021/12/22 07:08:22;;;;;;;22.60;7.45;;;;;;;-0.97;74.46;102253.28;5093099;28;20051;-67
2021/12/22 07:10:49;;;;;;;17.17;6.88;;;;;;;-1.03;74.61;102249.09;5067017;28;20509;-67
2021/12/22 07:13:16;;;;;;;17.30;6.72;;;;;;;-0.98;75.02;102248.97;5093281;28;20492;-67
2021/12/22 07:15:43;;;;;;;14.60;6.45;;;;;;;-0.97;74.97;102241.09;5094280;28;20064;-68
2021/12/22 07:18:11;;;;;;;19.10;7.25;;;;;;;-0.95;74.91;102248.03;5093111;28;20094;-68
2021/12/22 07:20:39;;;;;;;15.40;6.78;;;;;;;-1.17;75.08;102252.06;5093860;28;20568;-68
2021/12/22 07:23:06;;;;;;;15.73;6.78;;;;;;;-1.20;75.25;102244.34;5094379;28;20403;-67
2021/12/22 07:25:33;;;;;;;15.77;6.82;;;;;;;-1.07;75.17;102250.09;5092901;28;20070;-67
2021/12/22 07:27:59;;;;;;;16.05;7.43;;;;;;;-1.09;75.52;102262.31;5093180;28;20043;-67
2021/12/22 07:30:26;;;;;;;16.75;7.18;;;;;;;-1.17;75.47;102252.06;5103756;28;20040;-68
2021/12/22 07:32:55;;;;;;;19.65;7.55;;;;;;;-1.05;75.38;102250.91;5096105;28;20035;-68
2021/12/22 07:35:32;;;;;;;15.13;7.07;;;;;;;-1.01;74.70;102252.50;5112711;28;20036;-67
2021/12/22 07:38:20;;;;;;;14.40;7.00;;;;;;;-1.04;75.04;102251.75;5112956;28;20526;-68
2021/12/22 07:40:47;;;;;;;19.27;7.60;;;;;;;-1.08;75.45;102245.75;5113212;28;20040;-67
2021/12/22 07:43:13;;;;;;;19.98;7.25;;;;;;;-1.08;75.36;102252.72;5112267;28;20047;-67
2021/12/22 07:45:40;;;;;;;18.55;7.07;;;;;;;-1.23;75.77;102249.63;5096118;28;20104;-67
2021/12/22 07:48:08;;;;;;;35.85;8.85;;;;;;;-1.17;75.96;102248.63;5113200;28;20051;-68
2021/12/22 07:50:37;;;;;;;20.23;7.13;;;;;;;-1.22;76.01;102246.16;5114397;28;20126;-68
2021/12/22 07:53:05;;;;;;;26.08;8.32;;;;;;;-1.06;75.63;102241.34;5113767;28;20331;-67
2021/12/22 07:55:31;;;;;;;17.83;7.63;;;;;;;-1.03;75.64;102248.25;5114362;28;20041;-67
2021/12/22 07:57:58;;;;;;;22.50;8.38;;;;;;;-1.02;75.82;102255.16;5113031;28;20092;-67
2021/12/22 08:00:25;;;;;;;20.15;8.18;;;;;;;-1.16;76.03;102253.78;5095964;28;20064;-68
2021/12/22 08:02:52;;;;;;;21.95;8.20;;;;;;;-1.09;76.18;102251.88;5112805;28;20044;-67
2021/12/22 08:05:38;;;;;;;22.60;7.75;;;;;;;-0.85;75.25;102252.94;5099426;28;20113;-67
2021/12/22 08:08:05;;;;;;;22.70;7.93;;;;;;;-0.92;75.32;102258.38;5096527;27;20036;-67
2021/12/22 08:10:32;;;;;;;18.88;7.93;;;;;;;-0.86;75.58;102250.38;5095436;27;20401;-67
2021/12/22 08:12:59;;;;;;;21.48;8.98;;;;;;;-0.99;75.25;102262.91;5103455;27;20562;-67
2021/12/22 08:15:26;;;;;;;17.88;8.20;;;;;;;-0.90;75.57;102264.41;5093203;28;20152;-67
2021/12/22 08:17:53;;;;;;;18.00;8.18;;;;;;;-0.77;74.82;102266.59;5100919;28;20412;-67
2021/12/22 08:20:20;;;;;;;15.77;7.55;;;;;;;-0.88;74.63;102263.44;5094361;28;20051;-67
2021/12/22 08:22:47;;;;;;;21.30;8.68;;;;;;;-1.05;74.58;102263.06;5114134;27;20092;-67
2021/12/22 08:25:14;;;;;;;19.10;8.15;;;;;;;-0.99;75.08;102262.91;5107219;27;20099;-67
2021/12/22 08:27:40;;;;;;;16.42;7.70;;;;;;;-0.93;75.04;102260.09;5100149;28;20044;-67
2021/12/22 08:30:08;;;;;;;15.82;7.45;;;;;;;-0.77;74.37;102257.94;5096423;28;20396;-67
2021/12/22 08:32:36;;;;;;;18.67;8.15;;;;;;;-0.77;74.57;102256.16;5090744;28;20048;-68
2021/12/22 08:35:06;;;;;;;22.33;8.52;;;;;;;-0.79;75.10;102250.16;5091929;28;20071;-67
2021/12/22 08:40:23;;;;;;;19.65;7.88;;;;;;;-0.72;75.04;102257.81;5086055;28;20052;-67
2021/12/22 08:42:50;;;;;;;21.08;9.00;;;;;;;-0.75;74.62;102253.53;5112364;28;20050;-67
2021/12/22 08:45:17;;;;;;;21.63;8.70;;;;;;;-0.55;74.35;102246.88;5108128;28;20032;-67
2021/12/22 08:47:45;;;;;;;17.85;8.13;;;;;;;-0.56;74.21;102259.06;5091552;28;20074;-67
2021/12/22 08:50:14;;;;;;;19.70;8.57;;;;;;;-0.54;74.27;102252.06;5092300;28;20139;-67
2021/12/22 08:52:41;;;;;;;17.10;7.57;;;;;;;-0.37;73.98;102246.31;5081376;28;20156;-67
2021/12/22 08:55:09;;;;;;;18.25;8.23;;;;;;;-0.38;73.83;102247.25;5091309;28;20043;-67
2021/12/22 08:57:36;;;;;;;20.45;8.32;;;;;;;-0.46;74.25;102249.22;5091141;28;20078;-68
2021/12/22 09:00:09;;;;;;;20.48;9.02;;;;;;;-0.44;73.75;102240.47;5100031;28;20057;-68
2021/12/22 09:02:37;;;;;;;23.55;9.18;;;;;;;-0.41;73.62;102248.19;5094257;28;20412;-68
2021/12/22 09:05:06;;;;;;;19.50;8.48;;;;;;;-0.40;73.57;102247.28;5110223;28;20043;-67
2021/12/22 09:07:33;;;;;;;23.98;9.00;;;;;;;-0.29;74.05;102235.66;5102670;28;20400;-67
2021/12/22 09:10:00;;;;;;;22.30;9.70;;;;;;;-0.14;73.90;102243.03;5092004;28;20117;-68
2021/12/22 09:12:29;;;;;;;20.02;8.23;;;;;;;-0.12;73.41;102246.44;5091779;27;20040;-67
2021/12/22 09:14:56;;;;;;;22.50;9.07;;;;;;;0.03;73.10;102252.91;5097221;27;20499;-67
2021/12/22 09:17:23;;;;;;;22.30;9.40;;;;;;;-0.05;72.98;102253.16;5111922;28;20047;-68
2021/12/22 09:19:52;;;;;;;22.38;9.30;;;;;;;0.22;72.05;102253.19;5093851;28;20124;-67
2021/12/22 09:22:20;;;;;;;20.70;9.40;;;;;;;0.15;72.31;102249.91;5111634;28;20071;-67
2021/12/22 09:24:47;;;;;;;20.13;9.93;;;;;;;0.15;72.97;102262.13;5109605;28;20048;-68
2021/12/22 09:27:14;;;;;;;24.67;9.82;;;;;;;0.16;73.02;102254.25;5084961;28;20048;-67
2021/12/22 09:29:42;;;;;;;22.85;9.52;;;;;;;-0.09;73.27;102256.78;5076655;28;20040;-67
2021/12/22 09:32:12;;;;;;;21.45;8.80;;;;;;;-0.04;73.21;102249.66;5107195;28;20057;-67
2021/12/22 09:34:39;;;;;;;20.95;9.15;;;;;;;0.15;72.56;102243.84;5096973;28;20047;-67
2021/12/22 09:37:06;;;;;;;18.27;8.85;;;;;;;0.24;72.47;102243.56;5091079;28;20044;-68
2021/12/22 09:39:33;;;;;;;19.80;8.75;;;;;;;0.18;71.54;102243.72;5090576;28;20457;-67
2021/12/22 09:42:00;;;;;;;18.67;8.57;;;;;;;0.31;72.15;102241.56;5091345;28;20426;-67
2021/12/22 09:44:31;;;;;;;21.45;9.48;;;;;;;0.34;71.95;102249.31;5073281;28;20050;-67
2021/12/22 09:46:59;;;;;;;25.10;9.32;;;;;;;0.47;72.04;102249.75;5111160;28;20040;-67
2021/12/22 09:52:20;;;;;;;21.80;9.27;;;;;;;0.29;71.87;102239.03;5095473;28;20131;-67
2021/12/22 09:54:50;;;;;;;22.55;8.77;;;;;;;0.37;71.62;102225.72;5109714;28;20123;-68
2021/12/22 09:57:20;;;;;;;21.40;10.27;;;;;;;0.63;71.20;102231.81;5092857;28;20051;-67
2021/12/22 09:59:49;;;;;;;21.55;9.63;;;;;;;0.69;71.05;102215.91;5110043;28;20076;-67
2021/12/22 10:02:19;;;;;;;26.27;9.77;;;;;;;0.46;70.20;102214.97;5093166;28;20116;-67
2021/12/22 10:04:46;;;;;;;23.70;10.77;;;;;;;0.51;71.05;102233.94;5092699;28;20523;-67
2021/12/22 10:07:19;;;;;;;23.40;9.75;;;;;;;0.72;70.51;102241.94;5093996;28;20405;-67
2021/12/22 10:09:48;;;;;;;23.00;10.48;;;;;;;0.81;69.00;102244.22;5103224;27;20047;-68
2021/12/22 10:12:24;;;;;;;22.40;9.90;;;;;;;0.91;69.02;102236.88;5110319;27;20047;-67
2021/12/22 10:15:00;;;;;;;22.83;10.52;;;;;;;0.84;69.06;102241.50;5109683;28;20071;-67
2021/12/22 10:17:36;;;;;;;26.73;10.48;;;;;;;0.86;69.36;102226.63;5105703;28;20042;-67
2021/12/22 10:20:10;;;;;;;27.92;9.95;;;;;;;0.74;69.45;102224.44;5109883;28;20142;-67
2021/12/22 10:22:40;;;;;;;25.80;10.00;;;;;;;1.02;68.57;102229.53;5108098;27;20081;-68
2021/12/22 10:25:11;;;;;;;21.98;11.00;;;;;;;1.03;68.73;102223.38;5121354;27;20041;-68
2021/12/22 10:27:40;;;;;;;20.55;10.75;;;;;;;1.10;68.20;102224.03;5105661;27;20040;-67
2021/12/22 10:30:28;;;;;;;23.02;10.68;;;;;;;0.85;69.48;102213.59;5112389;27;20085;-68
2021/12/22 10:33:06;;;;;;;24.60;10.07;;;;;;;0.94;69.83;102218.50;5109541;27;20370;-67
2021/12/22 10:35:34;;;;;;;20.55;9.65;;;;;;;1.18;68.44;102221.13;5113580;27;20031;-68
2021/12/22 10:38:02;;;;;;;24.23;10.55;;;;;;;1.32;67.92;102224.06;5128815;27;20501;-67
2021/12/22 10:40:33;;;;;;;27.17;10.52;;;;;;;1.34;68.04;102217.03;5116450;27;20047;-67
2021/12/22 10:43:02;;;;;;;28.60;11.70;;;;;;;1.48;67.47;102211.28;5117057;27;20051;-68
2021/12/22 10:45:31;;;;;;;20.95;10.32;;;;;;;1.75;66.27;102198.00;5098868;28;20036;-68
2021/12/22 10:50:52;;;;;;;25.63;10.80;;;;;;;2.02;65.49;102196.91;5113071;27;20048;-68
2021/12/22 10:53:19;;;;;;;22.38;11.30;;;;;;;1.86;65.87;102186.19;5106545;27;20441;-67
2021/12/22 10:55:48;;;;;;;22.73;11.88;;;;;;;2.39;64.66;102186.66;5113387;27;20046;-67
2021/12/22 11:01:11;;;;;;;25.98;11.85;;;;;;;2.72;63.40;102170.38;5117986;27;20391;-68
2021/12/22 11:03:53;;;;;;;29.33;11.50;;;;;;;3.22;62.22;102170.69;5104559;28;20032;-68
2021/12/22 11:06:25;;;;;;;25.60;11.48;;;;;;;3.44;60.04;102175.78;5093955;28;20047;-68
2021/12/22 11:08:58;;;;;;;26.13;11.20;;;;;;;3.75;59.45;102168.22;5105926;28;20165;-68
2021/12/22 11:11:36;;;;;;;28.58;11.15;;;;;;;3.71;59.56;102169.28;5109577;28;20035;-66
2021/12/22 11:14:22;;;;;;;26.08;11.27;;;;;;;3.72;60.36;102166.59;5108839;28;20071;-66
2021/12/22 11:19:34;;;;;;;26.13;12.32;;;;;;;3.57;59.83;102177.84;5119048;27;20414;-67
2021/12/22 11:22:10;;;;;;;34.58;11.68;;;;;;;3.85;59.88;102159.78;5100548;28;20039;-67
2021/12/22 11:24:39;;;;;;;23.95;11.30;;;;;;;4.10;58.28;102158.59;5106893;28;20043;-68
2021/12/22 11:27:08;;;;;;;21.13;10.73;;;;;;;3.61;58.65;102164.47;5112473;28;20050;-68
2021/12/22 11:29:38;;;;;;;24.60;11.48;;;;;;;3.57;59.24;102148.97;5092982;28;20051;-68
2021/12/22 11:32:06;;;;;;;28.52;11.75;;;;;;;3.40;59.80;102155.88;5105403;28;20051;-67
2021/12/22 11:34:36;;;;;;;23.60;11.43;;;;;;;3.48;60.05;102152.88;5106051;27;20048;-68
2021/12/22 11:37:05;;;;;;;25.73;10.95;;;;;;;3.38;60.53;102139.31;5110724;28;20040;-68
2021/12/22 11:39:33;;;;;;;26.15;11.38;;;;;;;3.73;59.24;102135.91;5103754;28;20142;-68
2021/12/22 11:42:03;;;;;;;26.30;11.10;;;;;;;3.56;59.02;102124.47;5105079;28;20148;-68
2021/12/22 11:44:32;;;;;;;23.30;11.13;;;;;;;3.44;60.12;102119.84;5113260;27;20028;-68
2021/12/22 11:47:04;;;;;;;25.25;11.50;;;;;;;3.31;60.90;102127.47;5098429;28;20044;-68
2021/12/22 11:49:34;;;;;;;24.17;11.00;;;;;;;3.24;60.71;102110.31;5104194;28;20126;-68
2021/12/22 11:52:43;;;;;;;22.52;11.32;;;;;;;3.29;59.59;102126.66;5084521;28;20055;-67
2021/12/22 11:55:18;;;;;;;28.63;10.82;;;;;;;2.77;60.93;102118.63;5112544;28;20047;-67
2021/12/22 11:57:49;;;;;;;26.27;11.30;;;;;;;2.86;61.09;102115.56;5107021;28;20046;-67